Time;durP1;ratioP1;P1;durP2;ratioP2;P2;SDS_P1;SDS_P2;PMS_P1;PMS_P2;Temp;Humidity;BMP_temperature;BMP_pressure;BME280_temperature;BME280_humidity;BME280_pressure;Samples;Min_cycle;Max_cycle;Signal;HPM_P1;HPM_P2
2023/07/09 00:00:53;;;;;;;12.18;6.97;;;;;;;;;;6145869;23;20512;-59
2023/07/09 00:03:27;;;;;;;9.57;6.18;;;;;;;;;;6147551;23;20021;-58
2023/07/09 00:05:55;;;;;;;11.48;6.40;;;;;;;;;;6145560;23;20511;-59
2023/07/09 00:08:31;;;;;;;10.63;6.43;;;;;;;;;;6147697;23;20032;-57
2023/07/09 00:10:58;;;;;;;9.85;6.22;;;;;;;;;;6147405;23;20049;-54
2023/07/09 00:13:26;;;;;;;12.65;6.30;;;;;;;;;;6147341;23;20032;-52
2023/07/09 00:16:01;;;;;;;9.50;6.20;;;;;;;;;;6145780;23;20104;-54
2023/07/09 00:18:29;;;;;;;10.93;6.10;;;;;;;;;;6146310;23;20026;-60
2023/07/09 00:21:02;;;;;;;12.63;6.80;;;;;;;;;;6148061;23;20044;-54
2023/07/09 00:23:30;;;;;;;14.95;7.15;;;;;;;;;;6146430;23;20575;-60
2023/07/09 00:26:05;;;;;;;10.50;6.78;;;;;;;;;;6147171;23;20072;-60
2023/07/09 00:28:33;;;;;;;10.38;6.13;;;;;;;;;;6147280;23;20021;-60
2023/07/09 00:31:00;;;;;;;20.38;6.47;;;;;;;;;;6146200;23;20026;-60
2023/07/09 00:33:33;;;;;;;13.85;7.50;;;;;;;;;;6147252;23;20069;-60
2023/07/09 00:36:00;;;;;;;9.38;7.07;;;;;;;;;;6146595;23;20034;-60
2023/07/09 00:38:47;;;;;;;10.07;7.20;;;;;;;;;;6146709;23;20076;-60
2023/07/09 00:41:17;;;;;;;11.95;7.68;;;;;;;;;;6123691;23;20029;-59
2023/07/09 00:43:51;;;;;;;11.05;7.45;;;;;;;;;;6146557;23;20073;-59
2023/07/09 00:46:27;;;;;;;14.57;7.00;;;;;;;;;;6146653;23;20018;-59
2023/07/09 00:49:06;;;;;;;13.55;7.47;;;;;;;;;;6146046;23;20053;-59
2023/07/09 00:51:41;;;;;;;10.43;7.05;;;;;;;;;;6144342;23;20021;-51
2023/07/09 00:54:24;;;;;;;15.45;7.22;;;;;;;;;;6120459;23;20032;-57
2023/07/09 00:56:53;;;;;;;12.68;7.38;;;;;;;;;;6147105;23;20047;-53
2023/07/09 00:59:31;;;;;;;10.75;7.07;;;;;;;;;;6147665;23;20051;-50
2023/07/09 01:02:00;;;;;;;12.25;7.55;;;;;;;;;;6148057;23;20417;-55
2023/07/09 01:04:34;;;;;;;15.93;7.35;;;;;;;;;;6147568;23;20255;-55
2023/07/09 01:07:09;;;;;;;13.05;7.80;;;;;;;;;;6149674;23;20409;-55
2023/07/09 01:09:42;;;;;;;21.02;7.97;;;;;;;;;;6146800;23;20026;-52
2023/07/09 01:12:19;;;;;;;11.98;7.07;;;;;;;;;;6148410;23;20052;-53
2023/07/09 01:14:48;;;;;;;14.65;8.05;;;;;;;;;;6148320;23;20025;-57
2023/07/09 01:17:21;;;;;;;12.18;8.18;;;;;;;;;;6148319;23;20049;-62
2023/07/09 01:19:51;;;;;;;13.80;7.63;;;;;;;;;;6147489;23;20021;-53
2023/07/09 01:22:19;;;;;;;21.77;7.38;;;;;;;;;;6146912;23;20021;-57
2023/07/09 01:25:03;;;;;;;14.43;7.97;;;;;;;;;;6148072;23;20032;-55
2023/07/09 01:27:45;;;;;;;12.90;7.22;;;;;;;;;;6148978;23;20559;-53
2023/07/09 01:30:33;;;;;;;16.23;6.93;;;;;;;;;;6146373;23;20026;-52
2023/07/09 01:33:09;;;;;;;14.02;7.18;;;;;;;;;;6149048;23;20558;-54
2023/07/09 01:35:39;;;;;;;11.85;7.20;;;;;;;;;;6146366;23;20416;-59
2023/07/09 01:38:14;;;;;;;12.50;7.45;;;;;;;;;;6146588;23;20029;-61
2023/07/09 01:40:48;;;;;;;12.50;7.30;;;;;;;;;;6147641;23;20025;-62
2023/07/09 01:43:16;;;;;;;12.10;7.68;;;;;;;;;;6148118;23;20022;-60
2023/07/09 01:45:50;;;;;;;11.88;7.13;;;;;;;;;;6148140;23;20075;-60
2023/07/09 01:48:20;;;;;;;14.77;7.43;;;;;;;;;;6147832;23;20131;-54
2023/07/09 01:51:02;;;;;;;11.82;6.88;;;;;;;;;;6145840;23;20028;-58
2023/07/09 01:53:37;;;;;;;14.18;7.55;;;;;;;;;;6147856;23;20021;-53
2023/07/09 01:56:10;;;;;;;11.30;7.53;;;;;;;;;;6147275;23;20080;-54
2023/07/09 01:58:41;;;;;;;16.48;7.70;;;;;;;;;;6147830;23;20035;-53
2023/07/09 02:01:10;;;;;;;13.80;8.32;;;;;;;;;;6147819;23;20441;-55
2023/07/09 02:03:43;;;;;;;12.15;7.32;;;;;;;;;;6148102;23;20087;-62
2023/07/09 02:06:11;;;;;;;13.70;8.25;;;;;;;;;;6146839;23;20026;-63
2023/07/09 02:08:45;;;;;;;14.77;7.40;;;;;;;;;;6147931;23;20045;-62
2023/07/09 02:11:12;;;;;;;15.05;7.88;;;;;;;;;;6146916;23;20049;-62
2023/07/09 02:13:45;;;;;;;18.42;8.55;;;;;;;;;;6147683;23;20193;-62
2023/07/09 02:16:13;;;;;;;14.20;7.45;;;;;;;;;;6146590;23;20026;-62
2023/07/09 02:18:40;;;;;;;13.35;7.97;;;;;;;;;;6148592;23;20084;-62
2023/07/09 02:21:13;;;;;;;19.60;8.95;;;;;;;;;;6146990;23;20437;-62
2023/07/09 02:23:40;;;;;;;11.23;7.55;;;;;;;;;;6146359;23;20029;-61
2023/07/09 02:26:08;;;;;;;12.48;8.60;;;;;;;;;;6147833;23;20025;-62
2023/07/09 02:28:41;;;;;;;11.98;8.18;;;;;;;;;;6147742;23;20025;-62
2023/07/09 02:31:08;;;;;;;12.75;8.75;;;;;;;;;;6147557;23;20029;-62
2023/07/09 02:33:42;;;;;;;13.27;9.20;;;;;;;;;;6146777;23;20567;-61
2023/07/09 02:36:10;;;;;;;12.88;8.63;;;;;;;;;;6145622;23;20555;-61
2023/07/09 02:38:37;;;;;;;13.05;8.60;;;;;;;;;;6148098;23;20535;-62
2023/07/09 02:41:10;;;;;;;14.57;8.18;;;;;;;;;;6146674;23;20440;-62
2023/07/09 02:43:37;;;;;;;14.20;8.80;;;;;;;;;;6142779;23;20029;-54
2023/07/09 02:46:11;;;;;;;16.73;8.48;;;;;;;;;;6147076;23;20648;-61
2023/07/09 02:48:38;;;;;;;17.55;9.52;;;;;;;;;;6148172;23;20026;-61
2023/07/09 02:51:06;;;;;;;18.02;8.65;;;;;;;;;;6144194;23;20047;-59
2023/07/09 02:53:39;;;;;;;13.38;8.43;;;;;;;;;;6147332;23;20084;-61
2023/07/09 02:56:06;;;;;;;14.50;9.27;;;;;;;;;;6148369;23;20022;-62
2023/07/09 02:58:40;;;;;;;13.52;8.00;;;;;;;;;;6146967;23;20029;-61
2023/07/09 03:01:08;;;;;;;13.20;8.52;;;;;;;;;;6146965;23;20018;-58
2023/07/09 03:03:35;;;;;;;13.05;8.25;;;;;;;;;;6147934;23;20036;-61
2023/07/09 03:06:09;;;;;;;9.90;7.57;;;;;;;;;;6147011;23;20104;-59
2023/07/09 03:08:36;;;;;;;9.95;7.45;;;;;;;;;;6148183;23;20033;-62
2023/07/09 03:11:11;;;;;;;9.43;6.78;;;;;;;;;;6145498;23;20040;-62
2023/07/09 03:13:38;;;;;;;10.65;7.78;;;;;;;;;;6146662;23;20492;-56
2023/07/09 03:16:06;;;;;;;;;;;;;;;;;;6148082;23;20064;-54
2023/07/09 03:18:40;;;;;;;15.50;7.40;;;;;;;;;;6148623;23;19916;-55
2023/07/09 03:21:07;;;;;;;15.48;8.00;;;;;;;;;;6145181;23;20084;-58
2023/07/09 03:23:41;;;;;;;10.75;7.22;;;;;;;;;;6147610;23;20030;-57
2023/07/09 03:26:09;;;;;;;13.35;7.50;;;;;;;;;;6147328;23;20025;-56
2023/07/09 03:28:36;;;;;;;8.57;5.90;;;;;;;;;;6147552;23;20029;-63
2023/07/09 03:31:10;;;;;;;8.73;5.78;;;;;;;;;;6146488;23;20080;-62
2023/07/09 03:33:37;;;;;;;8.25;5.88;;;;;;;;;;6147665;23;20029;-63
2023/07/09 03:36:10;;;;;;;7.85;5.90;;;;;;;;;;6146064;23;20473;-63
2023/07/09 03:38:38;;;;;;;11.63;7.07;;;;;;;;;;6147792;23;20065;-56
2023/07/09 03:41:05;;;;;;;12.90;6.90;;;;;;;;;;6146775;23;20425;-55
2023/07/09 03:43:38;;;;;;;9.18;6.90;;;;;;;;;;6147248;23;20033;-55
2023/07/09 03:46:06;;;;;;;13.25;6.90;;;;;;;;;;6146739;23;20021;-55
2023/07/09 03:48:39;;;;;;;12.68;7.10;;;;;;;;;;6147440;23;20330;-51
2023/07/09 03:51:13;;;;;;;11.23;6.55;;;;;;;;;;6144986;23;20021;-55
2023/07/09 03:53:54;;;;;;;12.70;6.40;;;;;;;;;;6146839;23;20059;-54
2023/07/09 03:56:27;;;;;;;12.82;6.85;;;;;;;;;;6143983;23;20029;-66
2023/07/09 03:59:01;;;;;;;11.32;6.80;;;;;;;;;;6122742;23;20358;-63
2023/07/09 04:01:28;;;;;;;10.45;6.88;;;;;;;;;;6146256;23;20076;-63
2023/07/09 04:03:56;;;;;;;13.90;6.93;;;;;;;;;;6146390;23;20124;-64
2023/07/09 04:06:30;;;;;;;10.38;6.07;;;;;;;;;;6147340;23;20044;-53
2023/07/09 04:08:58;;;;;;;9.43;6.85;;;;;;;;;;6148490;23;20510;-63
2023/07/09 04:11:32;;;;;;;10.18;5.72;;;;;;;;;;6146249;23;20040;-58
2023/07/09 04:14:02;;;;;;;6.70;5.70;;;;;;;;;;6120898;23;20025;-57
2023/07/09 04:16:29;;;;;;;8.45;5.45;;;;;;;;;;6145659;23;20021;-58
2023/07/09 04:19:03;;;;;;;10.95;5.35;;;;;;;;;;6146400;23;20022;-62
2023/07/09 04:21:30;;;;;;;13.65;5.88;;;;;;;;;;6145931;23;20057;-60
2023/07/09 04:23:57;;;;;;;11.45;5.85;;;;;;;;;;6147734;23;20029;-62
2023/07/09 04:26:31;;;;;;;11.43;5.72;;;;;;;;;;6145461;23;20258;-60
2023/07/09 04:28:59;;;;;;;8.32;5.22;;;;;;;;;;6147866;23;20559;-60
2023/07/09 04:31:32;;;;;;;8.70;4.97;;;;;;;;;;6146491;23;20021;-60
2023/07/09 04:34:00;;;;;;;11.10;5.05;;;;;;;;;;6147628;23;20029;-60
2023/07/09 04:36:27;;;;;;;8.02;4.95;;;;;;;;;;6149840;23;20021;-51
2023/07/09 04:39:00;;;;;;;13.25;5.22;;;;;;;;;;6148481;23;20087;-52
2023/07/09 04:41:27;;;;;;;7.30;4.63;;;;;;;;;;6147245;23;20022;-51
2023/07/09 04:44:02;;;;;;;10.93;5.38;;;;;;;;;;6149629;23;20548;-54
2023/07/09 04:46:29;;;;;;;7.18;4.47;;;;;;;;;;6149756;23;20037;-56
2023/07/09 04:48:56;;;;;;;8.00;4.90;;;;;;;;;;6149290;23;20039;-58
2023/07/09 04:51:37;;;;;;;7.40;5.30;;;;;;;;;;6144860;23;20042;-56
2023/07/09 04:54:05;;;;;;;7.85;5.47;;;;;;;;;;6147710;23;20021;-51
2023/07/09 04:56:38;;;;;;;10.35;5.32;;;;;;;;;;6146872;23;20076;-53
2023/07/09 04:59:06;;;;;;;7.90;4.60;;;;;;;;;;6148287;23;20057;-54
2023/07/09 05:01:33;;;;;;;7.82;5.38;;;;;;;;;;6147408;23;20710;-53
2023/07/09 05:04:07;;;;;;;12.00;5.43;;;;;;;;;;6148849;23;20084;-57
2023/07/09 05:06:35;;;;;;;7.22;5.47;;;;;;;;;;6146871;23;20022;-52
2023/07/09 05:09:02;;;;;;;8.65;5.22;;;;;;;;;;6149545;23;20029;-49
2023/07/09 05:11:36;;;;;;;6.65;5.07;;;;;;;;;;6147547;23;20030;-48
2023/07/09 05:14:04;;;;;;;10.60;5.18;;;;;;;;;;6148850;23;20084;-50
2023/07/09 05:16:38;;;;;;;7.97;5.22;;;;;;;;;;6148030;23;20028;-53
2023/07/09 05:19:08;;;;;;;10.00;4.93;;;;;;;;;;6148696;23;20551;-51
2023/07/09 05:21:35;;;;;;;12.63;5.43;;;;;;;;;;6147189;23;20485;-59
2023/07/09 05:24:08;;;;;;;9.32;5.35;;;;;;;;;;6149782;23;20030;-59
2023/07/09 05:26:36;;;;;;;7.30;5.10;;;;;;;;;;6146987;23;20072;-59
2023/07/09 05:29:10;;;;;;;7.75;5.15;;;;;;;;;;6149213;23;20033;-59
2023/07/09 05:31:37;;;;;;;12.35;5.35;;;;;;;;;;6148163;23;20025;-64
2023/07/09 05:34:04;;;;;;;12.25;5.80;;;;;;;;;;6146112;23;20067;-52
2023/07/09 05:36:38;;;;;;;9.38;5.57;;;;;;;;;;6124298;23;20026;-58
2023/07/09 05:39:05;;;;;;;8.48;5.38;;;;;;;;;;6145334;23;20455;-57
2023/07/09 05:41:32;;;;;;;13.25;5.50;;;;;;;;;;6146694;23;20065;-59
2023/07/09 05:44:05;;;;;;;8.50;4.55;;;;;;;;;;6149180;23;20034;-58
2023/07/09 05:46:36;;;;;;;9.02;5.55;;;;;;;;;;6146156;23;20025;-57
2023/07/09 05:49:11;;;;;;;7.40;4.63;;;;;;;;;;6144221;23;20036;-58
2023/07/09 05:51:53;;;;;;;8.20;4.85;;;;;;;;;;6145052;23;20504;-59
2023/07/09 05:54:27;;;;;;;9.60;4.70;;;;;;;;;;6147730;23;20059;-58
2023/07/09 05:57:01;;;;;;;7.50;4.53;;;;;;;;;;6146856;23;20032;-59
2023/07/09 05:59:29;;;;;;;7.82;4.18;;;;;;;;;;6148499;23;20087;-59
2023/07/09 06:01:56;;;;;;;10.52;4.80;;;;;;;;;;6146289;23;20497;-54
2023/07/09 06:04:33;;;;;;;6.55;4.90;;;;;;;;;;6147668;23;20029;-64
2023/07/09 06:07:00;;;;;;;7.00;4.28;;;;;;;;;;6146524;23;20021;-64
2023/07/09 06:09:41;;;;;;;8.38;4.68;;;;;;;;;;6148093;23;20017;-65
2023/07/09 06:12:09;;;;;;;6.68;4.45;;;;;;;;;;6147211;23;20029;-63
2023/07/09 06:14:42;;;;;;;7.78;4.65;;;;;;;;;;6147120;23;20040;-64
2023/07/09 06:17:16;;;;;;;5.60;3.88;;;;;;;;;;6146373;23;20029;-64
2023/07/09 06:19:44;;;;;;;6.97;4.07;;;;;;;;;;6148610;23;20407;-61
2023/07/09 06:22:18;;;;;;;7.88;4.38;;;;;;;;;;6148204;23;20420;-61
2023/07/09 06:24:45;;;;;;;8.90;3.83;;;;;;;;;;6146727;23;20029;-63
2023/07/09 06:27:12;;;;;;;;;;;;;;;;;;6146683;23;20025;-63
2023/07/09 06:29:47;;;;;;;7.45;4.43;;;;;;;;;;6145508;23;19967;-64
2023/07/09 06:32:14;;;;;;;7.60;4.40;;;;;;;;;;6147976;23;20488;-61
2023/07/09 06:34:41;;;;;;;6.97;3.88;;;;;;;;;;6148450;23;20021;-61
2023/07/09 06:37:15;;;;;;;7.78;4.15;;;;;;;;;;6146842;23;20029;-61
2023/07/09 06:39:42;;;;;;;7.53;3.92;;;;;;;;;;6143202;23;20366;-60
2023/07/09 06:42:09;;;;;;;4.90;3.65;;;;;;;;;;6144195;23;20026;-60
2023/07/09 06:44:42;;;;;;;6.22;3.75;;;;;;;;;;6147210;23;20496;-60
2023/07/09 06:47:10;;;;;;;5.97;4.00;;;;;;;;;;6145556;23;20026;-55
2023/07/09 06:49:45;;;;;;;4.90;3.42;;;;;;;;;;6142959;23;20025;-55
2023/07/09 06:52:21;;;;;;;8.38;3.72;;;;;;;;;;6091956;23;20098;-51
2023/07/09 06:54:58;;;;;;;7.32;4.03;;;;;;;;;;6087886;23;20022;-55
2023/07/09 06:57:25;;;;;;;4.90;3.33;;;;;;;;;;6087344;23;20066;-57
2023/07/09 06:59:52;;;;;;;5.30;3.75;;;;;;;;;;6109315;23;20094;-55
2023/07/09 07:02:27;;;;;;;6.07;3.58;;;;;;;;;;6084581;23;20046;-64
2023/07/09 07:04:55;;;;;;;5.13;3.63;;;;;;;;;;6086482;23;20559;-64
2023/07/09 07:07:22;;;;;;;5.43;3.55;;;;;;;;;;6082468;23;20129;-64
2023/07/09 07:09:55;;;;;;;5.65;3.35;;;;;;;;;;6084120;23;20093;-64
2023/07/09 07:12:27;;;;;;;6.40;3.42;;;;;;;;;;6085451;23;20485;-64
2023/07/09 07:15:00;;;;;;;6.75;3.33;;;;;;;;;;6087110;23;20026;-58
2023/07/09 07:17:28;;;;;;;4.63;3.40;;;;;;;;;;6084714;23;20018;-56
2023/07/09 07:19:55;;;;;;;5.47;3.50;;;;;;;;;;6086789;23;20022;-66
2023/07/09 07:22:28;;;;;;;5.07;3.20;;;;;;;;;;6088666;23;20124;-66
2023/07/09 07:24:56;;;;;;;4.93;3.58;;;;;;;;;;6085945;23;20086;-66
2023/07/09 07:27:29;;;;;;;5.35;3.47;;;;;;;;;;6087606;23;20390;-66
2023/07/09 07:29:57;;;;;;;8.35;3.67;;;;;;;;;;6088497;23;20556;-66
2023/07/09 07:32:24;;;;;;;;;;;;;;;;;;6087055;23;20109;-66
2023/07/09 07:34:59;;;;;;;7.05;3.83;;;;;;;;;;6088063;23;19988;-57
2023/07/09 07:37:26;;;;;;;3.53;3.05;;;;;;;;;;6087205;23;20030;-58
2023/07/09 07:39:53;;;;;;;4.30;3.30;;;;;;;;;;6085169;23;20026;-58
2023/07/09 07:42:26;;;;;;;5.65;3.03;;;;;;;;;;6087822;23;20077;-58
2023/07/09 07:44:54;;;;;;;5.32;3.20;;;;;;;;;;6086367;23;20026;-56
2023/07/09 07:47:28;;;;;;;5.03;2.63;;;;;;;;;;6087455;23;20470;-57
2023/07/09 07:49:55;;;;;;;3.35;2.63;;;;;;;;;;6083388;23;20038;-58
2023/07/09 07:52:37;;;;;;;5.07;3.08;;;;;;;;;;6085842;23;20684;-58
2023/07/09 07:55:05;;;;;;;5.90;2.97;;;;;;;;;;6086446;23;20413;-65
2023/07/09 07:57:45;;;;;;;3.55;2.67;;;;;;;;;;6084824;23;20117;-65
2023/07/09 08:00:12;;;;;;;4.15;2.80;;;;;;;;;;6088037;23;20030;-65
2023/07/09 08:02:46;;;;;;;3.90;2.75;;;;;;;;;;6084150;23;20029;-65
2023/07/09 08:05:33;;;;;;;4.28;2.97;;;;;;;;;;6083654;23;20101;-64
2023/07/09 08:08:28;;;;;;;3.15;2.60;;;;;;;;;;6085489;23;20022;-64
2023/07/09 08:11:16;;;;;;;5.63;2.55;;;;;;;;;;6087253;23;20026;-54
2023/07/09 08:14:10;;;;;;;3.67;2.70;;;;;;;;;;6087524;23;20081;-53
2023/07/09 08:17:04;;;;;;;2.90;2.20;;;;;;;;;;6086843;23;20437;-54
2023/07/09 08:19:58;;;;;;;3.03;2.35;;;;;;;;;;6081571;23;20038;-57
2023/07/09 08:22:52;;;;;;;4.93;2.40;;;;;;;;;;6084656;23;20501;-54
2023/07/09 08:25:39;;;;;;;3.15;2.40;;;;;;;;;;6086061;23;20077;-50
2023/07/09 08:28:35;;;;;;;5.40;2.55;;;;;;;;;;6086313;23;20102;-55
2023/07/09 08:31:22;;;;;;;3.47;2.38;;;;;;;;;;6086741;23;20926;-56
2023/07/09 08:34:15;;;;;;;4.50;2.50;;;;;;;;;;6086615;23;20449;-56
2023/07/09 08:37:03;;;;;;;3.28;2.55;;;;;;;;;;6087843;23;20026;-55
2023/07/09 08:39:57;;;;;;;3.00;2.40;;;;;;;;;;6087200;23;20032;-58
2023/07/09 08:42:48;;;;;;;2.58;1.95;;;;;;;;;;6086135;23;20041;-59
2023/07/09 08:45:57;;;;;;;4.35;2.33;;;;;;;;;;6085458;23;20038;-58
2023/07/09 08:48:46;;;;;;;4.20;2.45;;;;;;;;;;6087589;23;20030;-53
2023/07/09 08:51:42;;;;;;;3.25;2.38;;;;;;;;;;6086843;23;20086;-65
2023/07/09 08:54:42;;;;;;;5.82;2.70;;;;;;;;;;6082181;23;20026;-64
2023/07/09 08:57:35;;;;;;;4.60;2.70;;;;;;;;;;6086531;23;20093;-64
2023/07/09 09:00:39;;;;;;;3.63;2.58;;;;;;;;;;6087196;23;20081;-64
2023/07/09 09:03:38;;;;;;;3.53;2.33;;;;;;;;;;6085488;23;20023;-64
2023/07/09 09:06:29;;;;;;;3.33;2.30;;;;;;;;;;6084024;23;20409;-59
2023/07/09 09:09:31;;;;;;;4.07;2.25;;;;;;;;;;6085475;23;20359;-52
2023/07/09 09:12:23;;;;;;;4.15;2.70;;;;;;;;;;6086399;23;20085;-49
2023/07/09 09:15:19;;;;;;;3.63;2.67;;;;;;;;;;6085050;23;20503;-51
2023/07/09 09:18:06;;;;;;;;;;;;;;;;;;6087807;23;20029;-51
2023/07/09 09:21:18;;;;;;;3.90;2.20;;;;;;;;;;6086703;23;19921;-54
2023/07/09 09:24:17;;;;;;;3.42;2.45;;;;;;;;;;6088024;23;20556;-63
2023/07/09 09:27:04;;;;;;;3.40;2.30;;;;;;;;;;6088840;23;20027;-67
2023/07/09 09:29:58;;;;;;;4.50;2.50;;;;;;;;;;6087608;23;20381;-67
2023/07/09 09:32:54;;;;;;;4.50;2.20;;;;;;;;;;6087357;23;20034;-67
2023/07/09 09:35:48;;;;;;;5.32;2.35;;;;;;;;;;6088178;23;20030;-67
2023/07/09 09:38:36;;;;;;;4.50;2.35;;;;;;;;;;6084148;23;20074;-67
2023/07/09 09:41:37;;;;;;;3.38;2.30;;;;;;;;;;6085697;23;20125;-66
2023/07/09 09:44:32;;;;;;;4.45;2.10;;;;;;;;;;6087168;23;20034;-58
2023/07/09 09:47:27;;;;;;;6.57;2.50;;;;;;;;;;6085453;23;20481;-55
2023/07/09 09:50:15;;;;;;;6.25;2.40;;;;;;;;;;6088728;23;20033;-56
2023/07/09 09:53:19;;;;;;;5.57;2.60;;;;;;;;;;6087938;23;20022;-52
2023/07/09 09:56:11;;;;;;;4.07;2.60;;;;;;;;;;6087753;23;20026;-55
2023/07/09 09:59:05;;;;;;;5.43;2.65;;;;;;;;;;6087424;23;20433;-52
2023/07/09 10:02:00;;;;;;;3.47;2.00;;;;;;;;;;6088744;23;20101;-53
2023/07/09 10:04:54;;;;;;;3.03;2.15;;;;;;;;;;6086598;23;20033;-50
2023/07/09 10:07:48;;;;;;;3.67;2.17;;;;;;;;;;6084470;23;20022;-52
2023/07/09 10:10:43;;;;;;;5.15;2.25;;;;;;;;;;6089672;23;20026;-67
2023/07/09 10:13:32;;;;;;;6.03;2.30;;;;;;;;;;6087244;23;20517;-67
2023/07/09 10:16:37;;;;;;;4.60;2.40;;;;;;;;;;6088798;23;20057;-67
2023/07/09 10:19:24;;;;;;;3.63;2.35;;;;;;;;;;6089775;23;20051;-67
2023/07/09 10:22:24;;;;;;;3.78;2.05;;;;;;;;;;6088655;23;20023;-56
2023/07/09 10:25:34;;;;;;;2.80;2.00;;;;;;;;;;6089072;23;20497;-50
2023/07/09 10:28:33;;;;;;;3.78;2.35;;;;;;;;;;6088451;23;20030;-50
2023/07/09 10:31:22;;;;;;;5.95;2.55;;;;;;;;;;6087645;23;20485;-48
2023/07/09 10:34:28;;;;;;;4.45;2.35;;;;;;;;;;6089305;23;20505;-52
2023/07/09 10:37:36;;;;;;;4.55;2.20;;;;;;;;;;6087322;23;20434;-52
2023/07/09 10:40:32;;;;;;;4.03;2.20;;;;;;;;;;6088647;23;20031;-53
2023/07/09 10:43:23;;;;;;;5.45;2.28;;;;;;;;;;6088736;23;20022;-52
2023/07/09 10:46:19;;;;;;;3.55;2.28;;;;;;;;;;6085788;23;20022;-51
2023/07/09 10:49:09;;;;;;;3.53;2.33;;;;;;;;;;6086132;23;20027;-59
2023/07/09 10:52:18;;;;;;;4.63;2.10;;;;;;;;;;6085432;23;20089;-59
2023/07/09 10:55:13;;;;;;;2.92;2.13;;;;;;;;;;6082976;23;20022;-55
2023/07/09 10:58:16;;;;;;;4.10;2.22;;;;;;;;;;6085710;23;20089;-51
2023/07/09 11:01:14;;;;;;;4.32;2.20;;;;;;;;;;6087614;23;20069;-53
2023/07/09 11:04:02;;;;;;;3.53;2.15;;;;;;;;;;6085872;23;20477;-52
2023/07/09 11:06:57;;;;;;;2.83;1.88;;;;;;;;;;6086075;23;20541;-51
2023/07/09 11:09:49;;;;;;;4.22;2.40;;;;;;;;;;6086489;23;20026;-67
2023/07/09 11:12:44;;;;;;;5.05;2.33;;;;;;;;;;6084634;23;20129;-67
2023/07/09 11:15:39;;;;;;;5.00;2.00;;;;;;;;;;6087780;23;20351;-68
2023/07/09 11:18:35;;;;;;;2.50;1.90;;;;;;;;;;6088967;23;20026;-59
2023/07/09 11:21:28;;;;;;;2.53;1.80;;;;;;;;;;6086973;23;20026;-60
2023/07/09 11:24:32;;;;;;;2.40;1.90;;;;;;;;;;6088097;23;20478;-59
2023/07/09 11:27:22;;;;;;;2.53;1.88;;;;;;;;;;6087859;23;20081;-60
2023/07/09 11:30:21;;;;;;;2.90;2.10;;;;;;;;;;6087443;23;20027;-59
2023/07/09 11:33:16;;;;;;;2.75;1.95;;;;;;;;;;6088381;23;20081;-60
2023/07/09 11:36:12;;;;;;;2.85;1.80;;;;;;;;;;6086313;23;20033;-59
2023/07/09 11:38:59;;;;;;;;;;;;;;;;;;6089013;23;20121;-59
2023/07/09 11:41:53;;;;;;;3.28;1.80;;;;;;;;;;6087231;23;19917;-59
2023/07/09 11:44:47;;;;;;;2.35;1.80;;;;;;;;;;6085841;23;20073;-59
2023/07/09 11:47:37;;;;;;;4.55;2.22;;;;;;;;;;6088412;23;20450;-57
2023/07/09 11:50:33;;;;;;;3.08;1.95;;;;;;;;;;6086663;23;20506;-53
2023/07/09 11:53:42;;;;;;;2.67;1.80;;;;;;;;;;6086670;23;20030;-49
2023/07/09 11:56:35;;;;;;;2.67;1.63;;;;;;;;;;6086659;23;20026;-53
2023/07/09 11:59:30;;;;;;;2.03;1.67;;;;;;;;;;6088842;23;20036;-54
2023/07/09 12:02:21;;;;;;;4.38;1.90;;;;;;;;;;6083026;23;20429;-51
2023/07/09 12:05:19;;;;;;;3.33;1.80;;;;;;;;;;6086845;23;20373;-60
2023/07/09 12:08:06;;;;;;;2.50;1.80;;;;;;;;;;6088091;23;20022;-60
2023/07/09 12:11:01;;;;;;;2.55;1.85;;;;;;;;;;6085149;23;20545;-59
2023/07/09 12:13:48;;;;;;;4.32;1.80;;;;;;;;;;6084694;23;20074;-60
2023/07/09 12:16:47;;;;;;;2.20;1.67;;;;;;;;;;6082526;23;20053;-50
2023/07/09 12:19:34;;;;;;;4.47;2.20;;;;;;;;;;6086714;23;20030;-59
2023/07/09 12:22:28;;;;;;;2.78;1.70;;;;;;;;;;6085525;23;20022;-60
2023/07/09 12:25:20;;;;;;;3.00;2.00;;;;;;;;;;6087071;23;20022;-60
2023/07/09 12:28:14;;;;;;;;;;;;;;;;;;6087409;23;20030;-58
2023/07/09 12:31:01;;;;;;;3.17;1.92;;;;;;;;;;6088495;23;19917;-60
2023/07/09 12:33:57;;;;;;;2.40;1.50;;;;;;;;;;6088040;23;20034;-66
2023/07/09 12:36:43;;;;;;;;;;;;;;;;;;6085402;23;20668;-66
2023/07/09 12:39:38;;;;;;;2.38;1.90;;;;;;;;;;6085160;23;20365;-66
2023/07/09 12:42:36;;;;;;;2.08;1.50;;;;;;;;;;6086826;23;20030;-66
2023/07/09 12:45:23;;;;;;;4.00;2.28;;;;;;;;;;6086506;23;20026;-60
2023/07/09 12:48:17;;;;;;;3.03;1.80;;;;;;;;;;6086895;23;20018;-57
2023/07/09 12:51:14;;;;;;;3.28;1.83;;;;;;;;;;6086728;23;20026;-56
2023/07/09 12:54:23;;;;;;;1.60;1.50;;;;;;;;;;6087073;23;20104;-56
2023/07/09 12:57:17;;;;;;;4.47;2.05;;;;;;;;;;6088983;23;20018;-56
2023/07/09 12:59:46;;;;;;;2.65;1.70;;;;;;;;;;6089323;23;20091;-57
2023/07/09 13:02:29;;;;;;;2.30;1.52;;;;;;;;;;6086557;23;20030;-59
2023/07/09 13:05:05;;;;;;;4.63;1.70;;;;;;;;;;6088650;23;20078;-59
2023/07/09 13:07:34;;;;;;;2.22;1.70;;;;;;;;;;6089768;23;20029;-59
2023/07/09 13:10:16;;;;;;;3.80;1.90;;;;;;;;;;6089988;23;20104;-59
2023/07/09 13:12:45;;;;;;;1.75;1.65;;;;;;;;;;6087012;23;20312;-58
2023/07/09 13:15:26;;;;;;;2.83;1.92;;;;;;;;;;6087187;23;20205;-59
2023/07/09 13:18:19;;;;;;;2.67;1.90;;;;;;;;;;6089209;23;20033;-59
2023/07/09 13:20:55;;;;;;;2.88;1.88;;;;;;;;;;6089453;23;20485;-59
2023/07/09 13:23:22;;;;;;;2.97;1.65;;;;;;;;;;6088139;23;20094;-59
2023/07/09 13:25:49;;;;;;;2.95;2.00;;;;;;;;;;6088743;23;20581;-59
2023/07/09 13:28:27;;;;;;;2.45;1.85;;;;;;;;;;6089807;23;20026;-59
2023/07/09 13:30:59;;;;;;;4.40;2.03;;;;;;;;;;6089155;23;20422;-56
2023/07/09 13:33:33;;;;;;;3.45;1.67;;;;;;;;;;6087365;23;20510;-54
2023/07/09 13:36:01;;;;;;;2.53;1.92;;;;;;;;;;6089688;23;20026;-55
2023/07/09 13:38:28;;;;;;;1.77;1.50;;;;;;;;;;6088274;23;20030;-53
2023/07/09 13:41:09;;;;;;;3.15;1.95;;;;;;;;;;6087799;23;20085;-59
2023/07/09 13:43:47;;;;;;;2.72;1.63;;;;;;;;;;6088786;23;20085;-59
2023/07/09 13:46:15;;;;;;;2.75;1.70;;;;;;;;;;6090712;23;20508;-58
2023/07/09 13:48:49;;;;;;;3.05;1.60;;;;;;;;;;6087646;23;20027;-59
2023/07/09 13:51:16;;;;;;;1.85;1.38;;;;;;;;;;6087692;23;20101;-60
2023/07/09 13:54:18;;;;;;;2.20;1.83;;;;;;;;;;6089250;23;20097;-59
2023/07/09 13:56:53;;;;;;;1.73;1.52;;;;;;;;;;6086626;23;20023;-59
2023/07/09 13:59:28;;;;;;;2.92;1.80;;;;;;;;;;6089735;23;20046;-65
2023/07/09 14:01:56;;;;;;;2.85;1.83;;;;;;;;;;6087721;23;20379;-65
2023/07/09 14:04:24;;;;;;;3.35;2.10;;;;;;;;;;6088089;23;20030;-65
2023/07/09 14:06:58;;;;;;;2.22;1.70;;;;;;;;;;6088590;23;20447;-65
2023/07/09 14:09:25;;;;;;;5.10;1.98;;;;;;;;;;6087717;23;20031;-58
2023/07/09 14:11:59;;;;;;;2.38;1.80;;;;;;;;;;6086068;23;20097;-61
2023/07/09 14:14:32;;;;;;;4.10;1.70;;;;;;;;;;6086475;23;20049;-61
2023/07/09 14:17:08;;;;;;;2.00;1.83;;;;;;;;;;6089293;23;20486;-60
2023/07/09 14:19:35;;;;;;;2.47;1.80;;;;;;;;;;6089412;23;20034;-61
2023/07/09 14:22:02;;;;;;;2.10;1.90;;;;;;;;;;6089051;23;20026;-61
2023/07/09 14:24:36;;;;;;;2.90;1.75;;;;;;;;;;6086320;23;20412;-60
2023/07/09 14:27:05;;;;;;;1.55;1.45;;;;;;;;;;6088182;23;20022;-58
2023/07/09 14:29:39;;;;;;;3.03;2.10;;;;;;;;;;6087937;23;20085;-58
2023/07/09 14:32:06;;;;;;;;;;;;;;;;;;6088880;23;20355;-58
2023/07/09 14:34:33;;;;;;;2.65;1.70;;;;;;;;;;6088737;23;19917;-58
2023/07/09 14:37:08;;;;;;;2.80;1.85;;;;;;;;;;6088415;23;20029;-54
2023/07/09 14:39:35;;;;;;;2.35;1.80;;;;;;;;;;6090096;23;20085;-56
2023/07/09 14:42:12;;;;;;;2.08;1.88;;;;;;;;;;6087312;23;20089;-60
2023/07/09 14:44:40;;;;;;;2.78;1.92;;;;;;;;;;6089226;23;20351;-60
2023/07/09 14:47:17;;;;;;;3.15;2.25;;;;;;;;;;6088178;23;20486;-60
2023/07/09 14:49:44;;;;;;;2.50;2.08;;;;;;;;;;6086797;23;20564;-60
2023/07/09 14:52:31;;;;;;;2.88;2.10;;;;;;;;;;6086276;23;20093;-59
2023/07/09 14:55:05;;;;;;;7.03;2.30;;;;;;;;;;6089112;23;20082;-54
2023/07/09 14:57:39;;;;;;;4.88;2.17;;;;;;;;;;6088637;23;20026;-57
2023/07/09 15:00:06;;;;;;;3.40;2.10;;;;;;;;;;6088376;23;20504;-54
2023/07/09 15:02:38;;;;;;;2.30;1.90;;;;;;;;;;6087163;23;20034;-54
2023/07/09 15:05:15;;;;;;;2.92;2.03;;;;;;;;;;6086226;23;20025;-66
2023/07/09 15:07:42;;;;;;;7.18;2.30;;;;;;;;;;6088366;23;20030;-62
2023/07/09 15:10:17;;;;;;;3.17;2.50;;;;;;;;;;6087469;23;20026;-54
2023/07/09 15:12:45;;;;;;;5.07;2.50;;;;;;;;;;6085530;23;20030;-52
2023/07/09 15:15:21;;;;;;;2.80;2.17;;;;;;;;;;6088153;23;20502;-52
2023/07/09 15:17:48;;;;;;;4.40;2.58;;;;;;;;;;6086629;23;20501;-55
2023/07/09 15:20:28;;;;;;;4.43;2.25;;;;;;;;;;6088821;23;20022;-51
2023/07/09 15:22:57;;;;;;;3.78;2.10;;;;;;;;;;6087937;23;20034;-49
2023/07/09 15:25:31;;;;;;;4.22;2.17;;;;;;;;;;6090013;23;20033;-53
2023/07/09 15:27:58;;;;;;;5.32;1.90;;;;;;;;;;6085567;23;20030;-59
2023/07/09 15:30:52;;;;;;;2.85;2.20;;;;;;;;;;6086322;23;20026;-59
2023/07/09 15:33:39;;;;;;;2.83;2.10;;;;;;;;;;6086610;23;20022;-66
2023/07/09 15:36:33;;;;;;;4.22;2.00;;;;;;;;;;6088319;23;20025;-54
2023/07/09 15:39:21;;;;;;;3.28;2.22;;;;;;;;;;6088142;23;20022;-60
2023/07/09 15:42:15;;;;;;;2.58;1.98;;;;;;;;;;6087014;23;20471;-60
2023/07/09 15:45:02;;;;;;;6.13;2.08;;;;;;;;;;6089188;23;20046;-59
2023/07/09 15:47:57;;;;;;;5.25;2.20;;;;;;;;;;6087283;23;20508;-57